Time;durP1;ratioP1;P1;durP2;ratioP2;P2;SDS_P1;SDS_P2;PMS_P1;PMS_P2;Temp;Humidity;BMP_temperature;BMP_pressure;BME280_temperature;BME280_humidity;BME280_pressure;Samples;Min_cycle;Max_cycle;Signal;HPM_P1;HPM_P2
2022/03/17 00:00:57;;;;;;;42.42;26.40;;;12.10;99.90;;;;;;5093707;28;20385;-70
2022/03/17 00:03:23;;;;;;;40.00;25.70;;;12.10;99.90;;;;;;5093614;28;20074;-74
2022/03/17 00:05:49;;;;;;;42.45;27.38;;;12.00;99.90;;;;;;5093538;28;20046;-73
2022/03/17 00:08:16;;;;;;;38.65;26.80;;;12.00;99.90;;;;;;5093377;28;20020;-72
2022/03/17 00:10:43;;;;;;;44.75;27.38;;;12.20;99.90;;;;;;5093483;28;20050;-71
2022/03/17 00:13:09;;;;;;;48.35;28.33;;;12.10;99.90;;;;;;5093668;28;20024;-69
2022/03/17 00:15:34;;;;;;;43.80;27.95;;;12.20;99.90;;;;;;5094101;28;20104;-74
2022/03/17 00:18:00;;;;;;;45.50;29.30;;;12.30;99.90;;;;;;5093553;28;20031;-72
2022/03/17 00:20:26;;;;;;;39.90;26.98;;;12.50;99.90;;;;;;5093280;28;20020;-69
2022/03/17 00:22:52;;;;;;;44.20;29.35;;;12.40;99.90;;;;;;5093391;28;20024;-75
2022/03/17 00:25:17;;;;;;;49.70;29.63;;;12.30;99.90;;;;;;5093332;28;20481;-72
2022/03/17 00:27:43;;;;;;;46.88;32.17;;;12.30;99.90;;;;;;5093381;28;20072;-75
2022/03/17 00:30:10;;;;;;;45.55;29.92;;;12.40;99.90;;;;;;5093619;28;20052;-70
2022/03/17 00:32:38;;;;;;;50.95;29.23;;;12.40;99.90;;;;;;5093453;28;20034;-70
2022/03/17 00:37:53;;;;;;;48.47;31.40;;;12.40;99.90;;;;;;5092937;28;20393;-74
2022/03/17 00:40:19;;;;;;;53.63;31.42;;;12.40;99.90;;;;;;5091791;28;20043;-72
2022/03/17 00:42:45;;;;;;;51.75;29.67;;;12.50;99.90;;;;;;5093305;28;20023;-72
2022/03/17 00:45:12;;;;;;;47.35;31.75;;;12.40;99.90;;;;;;5091877;28;20047;-72
2022/03/17 00:47:39;;;;;;;45.45;30.55;;;12.40;99.90;;;;;;5093059;28;20439;-72
2022/03/17 00:50:06;;;;;;;47.60;31.80;;;12.40;99.90;;;;;;5092888;28;20104;-72
2022/03/17 00:52:32;;;;;;;51.10;32.42;;;12.50;99.90;;;;;;5092608;28;20354;-71
2022/03/17 00:54:58;;;;;;;46.70;30.58;;;12.40;99.90;;;;;;5093028;28;20080;-73
2022/03/17 00:57:24;;;;;;;46.35;32.15;;;12.40;99.90;;;;;;5092850;28;20028;-74
2022/03/17 00:59:50;;;;;;;50.28;32.38;;;12.40;99.90;;;;;;5093015;28;20021;-71
2022/03/17 01:02:16;;;;;;;52.28;32.58;;;12.40;99.90;;;;;;5092778;28;20374;-74
2022/03/17 01:04:42;;;;;;;50.90;33.65;;;12.30;99.90;;;;;;5092711;28;20077;-74
2022/03/17 01:07:08;;;;;;;50.22;33.45;;;12.30;99.90;;;;;;5092600;28;20392;-72
2022/03/17 01:09:34;;;;;;;47.20;32.75;;;12.30;99.90;;;;;;5092920;28;20069;-73
2022/03/17 01:12:00;;;;;;;51.00;30.15;;;12.30;99.90;;;;;;5092782;28;20485;-72
2022/03/17 01:14:27;;;;;;;43.40;26.90;;;12.30;99.90;;;;;;5093054;28;20035;-73
2022/03/17 01:16:53;;;;;;;43.15;23.52;;;12.20;99.90;;;;;;5092716;28;20037;-72
2022/03/17 01:19:19;;;;;;;35.60;23.08;;;12.10;99.90;;;;;;5093058;28;20035;-69
2022/03/17 01:21:49;;;;;;;36.67;23.30;;;12.10;99.90;;;;;;5092307;28;20043;-69
2022/03/17 01:24:16;;;;;;;35.60;24.27;;;12.10;99.90;;;;;;5092906;28;20040;-74
2022/03/17 01:26:42;;;;;;;39.83;23.05;;;12.00;99.90;;;;;;5092707;28;20482;-73
2022/03/17 01:29:08;;;;;;;23.02;18.88;;;11.90;99.90;;;;;;5092609;28;20026;-73
2022/03/17 01:31:34;;;;;;;21.67;15.98;;;11.50;99.90;;;;;;5092523;28;20028;-69
2022/03/17 01:34:00;;;;;;;23.55;17.45;;;11.00;99.90;;;;;;5092669;28;20488;-75
2022/03/17 01:36:26;;;;;;;24.27;18.30;;;10.70;99.90;;;;;;5092531;28;20078;-72
2022/03/17 01:38:52;;;;;;;27.25;18.58;;;10.50;99.90;;;;;;5092679;28;20028;-73
2022/03/17 01:41:18;;;;;;;25.95;18.63;;;10.40;99.90;;;;;;5092719;28;20085;-75
2022/03/17 01:43:44;;;;;;;32.90;20.60;;;10.30;99.90;;;;;;5092564;28;20032;-71
2022/03/17 01:46:11;;;;;;;28.45;21.77;;;10.20;99.90;;;;;;5091401;28;20022;-73
2022/03/17 01:48:38;;;;;;;31.38;20.55;;;10.10;99.90;;;;;;5092228;28;20039;-69
2022/03/17 01:51:04;;;;;;;28.30;21.17;;;10.10;99.90;;;;;;5092275;28;20074;-75
2022/03/17 01:53:30;;;;;;;29.90;23.00;;;10.00;99.90;;;;;;5092542;28;20032;-70
2022/03/17 01:55:58;;;;;;;38.88;25.30;;;10.00;99.90;;;;;;5093201;28;20023;-77
2022/03/17 01:58:24;;;;;;;42.15;19.38;;;10.00;99.90;;;;;;5092396;28;20067;-77
2022/03/17 02:00:50;;;;;;;34.95;21.20;;;9.80;99.90;;;;;;5092644;28;20052;-77
2022/03/17 02:03:17;;;;;;;34.22;20.30;;;9.50;99.90;;;;;;5095522;28;20044;-77
2022/03/17 02:05:46;;;;;;;36.15;21.67;;;9.40;99.90;;;;;;5096117;28;20081;-77
2022/03/17 02:08:14;;;;;;;41.85;22.52;;;9.40;99.90;;;;;;5095895;28;20035;-77
2022/03/17 02:13:24;;;;;;;32.78;19.75;;;9.20;99.90;;;;;;5095895;28;20024;-77
2022/03/17 02:15:56;;;;;;;28.42;14.00;;;9.30;99.90;;;;;;5096034;28;20441;-77
2022/03/17 02:18:22;;;;;;;36.88;20.48;;;9.30;99.90;;;;;;5095397;28;20028;-78
2022/03/17 02:20:49;;;;;;;32.38;17.73;;;9.30;99.90;;;;;;5095801;28;20020;-77
2022/03/17 02:26:04;;;;;;;36.15;20.75;;;9.20;99.90;;;;;;5095852;28;20074;-77
2022/03/17 02:28:32;;;;;;;26.02;17.50;;;9.30;99.90;;;;;;5094277;28;20469;-77
2022/03/17 02:30:59;;;;;;;33.08;17.90;;;9.30;99.90;;;;;;5095539;28;20030;-78
2022/03/17 02:33:26;;;;;;;34.05;17.50;;;9.30;99.90;;;;;;5093972;28;20063;-77
2022/03/17 02:35:53;;;;;;;31.50;18.52;;;9.30;99.90;;;;;;5095640;28;20111;-78
2022/03/17 02:38:21;;;;;;;29.15;17.50;;;9.30;99.90;;;;;;5095198;28;20035;-77
2022/03/17 02:40:50;;;;;;;33.47;17.30;;;9.30;99.90;;;;;;5095550;28;20012;-77
2022/03/17 02:43:17;;;;;;;25.42;16.10;;;9.30;99.90;;;;;;5094096;28;20032;-76
2022/03/17 02:45:44;;;;;;;23.70;15.32;;;9.20;99.90;;;;;;5095352;28;20059;-78
2022/03/17 02:48:10;;;;;;;26.10;15.77;;;9.20;99.90;;;;;;5094814;28;20070;-77
2022/03/17 02:50:37;;;;;;;31.08;15.18;;;9.30;99.90;;;;;;5095503;28;20020;-78
2022/03/17 02:53:07;;;;;;;24.95;14.82;;;9.30;99.90;;;;;;5095035;28;20016;-78
2022/03/17 02:55:35;;;;;;;27.42;14.90;;;9.30;99.90;;;;;;5095017;28;20055;-77
2022/03/17 02:58:01;;;;;;;26.65;14.13;;;9.20;99.90;;;;;;5094969;28;20044;-77
2022/03/17 03:00:27;;;;;;;21.85;14.10;;;9.20;99.90;;;;;;5095157;28;20424;-78
2022/03/17 03:02:53;;;;;;;22.35;11.95;;;9.20;99.90;;;;;;5094426;28;20024;-77
2022/03/17 03:05:19;;;;;;;25.52;14.88;;;9.10;99.90;;;;;;5094559;28;20044;-77
2022/03/17 03:07:45;;;;;;;21.23;12.50;;;9.20;99.90;;;;;;5095239;28;20024;-78
2022/03/17 03:10:11;;;;;;;22.13;13.35;;;9.10;99.90;;;;;;5094611;28;20390;-77
2022/03/17 03:12:37;;;;;;;17.90;12.70;;;9.10;99.90;;;;;;5095001;28;20032;-76
2022/03/17 03:15:03;;;;;;;18.15;12.70;;;9.10;99.90;;;;;;5094642;28;20039;-77
2022/03/17 03:17:29;;;;;;;15.35;10.50;;;9.10;99.90;;;;;;5094492;28;20081;-76
2022/03/17 03:19:55;;;;;;;21.35;13.38;;;9.10;99.90;;;;;;5094645;28;20028;-77
2022/03/17 03:22:21;;;;;;;24.90;12.88;;;9.10;99.90;;;;;;5094830;28;20510;-77
2022/03/17 03:24:47;;;;;;;19.55;12.55;;;9.10;99.90;;;;;;5094474;28;20035;-78
2022/03/17 03:27:13;;;;;;;21.35;12.63;;;9.10;99.90;;;;;;5094361;28;20032;-78
2022/03/17 03:29:39;;;;;;;23.63;12.18;;;9.10;99.90;;;;;;5094340;28;20034;-77
2022/03/17 03:32:05;;;;;;;20.30;12.90;;;9.10;99.90;;;;;;5083035;28;20032;-77
2022/03/17 03:34:33;;;;;;;15.45;11.40;;;9.10;99.90;;;;;;5074244;28;20060;-77
2022/03/17 03:39:43;;;;;;;20.42;11.93;;;9.00;99.90;;;;;;5073797;28;20042;-77
2022/03/17 03:42:10;;;;;;;23.20;14.13;;;9.00;99.90;;;;;;5074063;28;20082;-77
2022/03/17 03:44:37;;;;;;;16.63;12.13;;;9.10;99.90;;;;;;5073910;28;20424;-78
2022/03/17 03:47:04;;;;;;;18.80;14.07;;;9.10;99.90;;;;;;5073608;28;20478;-78
2022/03/17 03:49:30;;;;;;;19.63;12.95;;;9.10;99.90;;;;;;5073828;28;20547;-78
2022/03/17 03:51:56;;;;;;;26.70;13.98;;;9.20;99.90;;;;;;5073848;28;20048;-77
2022/03/17 03:54:22;;;;;;;24.98;13.23;;;9.10;99.90;;;;;;5073509;28;20465;-77
2022/03/17 03:56:56;;;;;;;24.52;14.02;;;9.10;99.90;;;;;;5073934;28;20107;-77
2022/03/17 03:59:24;;;;;;;18.95;12.98;;;9.10;99.90;;;;;;5073580;28;20122;-77
2022/03/17 04:01:51;;;;;;;23.60;13.55;;;9.00;99.90;;;;;;5077250;28;20031;-78
2022/03/17 04:04:18;;;;;;;25.90;14.63;;;9.10;99.90;;;;;;5093584;28;20032;-78
2022/03/17 04:06:50;;;;;;;16.90;13.50;;;9.00;99.90;;;;;;5093801;28;20024;-78
2022/03/17 04:09:17;;;;;;;26.92;15.75;;;9.00;99.90;;;;;;5093636;28;20031;-78
2022/03/17 04:11:44;;;;;;;23.73;14.30;;;9.10;99.90;;;;;;5093635;28;20073;-77
2022/03/17 04:14:11;;;;;;;18.90;10.50;;;9.00;99.90;;;;;;5093348;28;20024;-77
2022/03/17 04:16:36;;;;;;;18.63;13.05;;;9.00;99.90;;;;;;5093654;28;20032;-77
2022/03/17 04:19:03;;;;;;;21.38;11.70;;;8.90;99.90;;;;;;5093425;28;20148;-78
2022/03/17 04:21:29;;;;;;;17.85;11.60;;;8.90;99.90;;;;;;5093497;28;20470;-78
2022/03/17 04:23:55;;;;;;;16.20;11.07;;;8.90;99.90;;;;;;5093043;28;20024;-77
2022/03/17 04:26:20;;;;;;;19.55;11.25;;;8.90;99.90;;;;;;5093200;28;20485;-77
2022/03/17 04:28:46;;;;;;;15.23;11.18;;;8.90;99.90;;;;;;5093225;28;20028;-77
2022/03/17 04:31:13;;;;;;;20.48;10.60;;;8.90;99.90;;;;;;5093285;28;20073;-77
2022/03/17 04:33:38;;;;;;;27.27;11.68;;;8.90;99.90;;;;;;5093804;28;20407;-77
2022/03/17 04:36:05;;;;;;;16.73;10.30;;;8.90;99.90;;;;;;5093173;28;20028;-78
2022/03/17 04:38:32;;;;;;;17.75;11.00;;;8.90;99.90;;;;;;5093169;28;20044;-78
2022/03/17 04:40:58;;;;;;;17.42;9.35;;;8.80;99.90;;;;;;5093178;28;20066;-77
2022/03/17 04:43:24;;;;;;;13.82;10.10;;;8.80;99.90;;;;;;5091778;28;20016;-78
2022/03/17 04:45:50;;;;;;;11.73;7.70;;;8.80;99.90;;;;;;5093219;28;20068;-77
2022/03/17 04:48:16;;;;;;;13.75;8.63;;;8.80;99.90;;;;;;5092942;28;20050;-77
2022/03/17 04:50:42;;;;;;;16.00;9.48;;;8.70;99.90;;;;;;5092974;28;20060;-77
2022/03/17 04:53:27;;;;;;;11.52;8.90;;;8.70;99.90;;;;;;5093243;28;20383;-78
2022/03/17 04:55:54;;;;;;;15.65;8.00;;;8.80;99.90;;;;;;5075129;28;20028;-77
2022/03/17 04:58:20;;;;;;;18.52;9.40;;;8.80;99.90;;;;;;5092736;28;20020;-77
2022/03/17 05:00:46;;;;;;;20.88;10.70;;;8.80;99.90;;;;;;5092768;28;20028;-77
2022/03/17 05:03:14;;;;;;;13.90;8.82;;;8.80;99.90;;;;;;5092713;28;20032;-76
2022/03/17 05:05:40;;;;;;;12.05;8.30;;;8.80;99.90;;;;;;5093002;28;20371;-77
2022/03/17 05:08:06;;;;;;;18.73;9.85;;;8.80;99.90;;;;;;5092810;28;20016;-77
2022/03/17 05:10:36;;;;;;;13.18;8.50;;;8.80;99.90;;;;;;5092958;28;20039;-77
2022/03/17 05:13:06;;;;;;;13.95;8.82;;;8.80;99.90;;;;;;5092447;28;20062;-77
2022/03/17 05:15:33;;;;;;;17.33;8.07;;;8.80;99.90;;;;;;5093202;28;20046;-77
2022/03/17 05:17:59;;;;;;;14.55;8.15;;;8.70;99.90;;;;;;5092942;28;20035;-77
2022/03/17 05:20:25;;;;;;;15.32;8.93;;;8.70;99.90;;;;;;5092753;28;20385;-77
2022/03/17 05:22:52;;;;;;;14.05;8.82;;;8.60;99.90;;;;;;5092808;28;20035;-77
2022/03/17 05:25:19;;;;;;;17.77;9.75;;;8.50;99.90;;;;;;5092657;28;20044;-77
2022/03/17 05:27:46;;;;;;;18.92;10.63;;;8.50;99.90;;;;;;5092475;28;20469;-77
2022/03/17 05:30:14;;;;;;;18.90;8.40;;;8.60;99.90;;;;;;5092502;28;20097;-77
2022/03/17 05:32:41;;;;;;;19.50;9.13;;;8.60;99.90;;;;;;5091448;28;20017;-77
2022/03/17 05:35:08;;;;;;;18.73;10.00;;;8.60;99.90;;;;;;5093187;28;20404;-77
2022/03/17 05:37:34;;;;;;;17.15;10.55;;;8.60;99.90;;;;;;5095579;28;20032;-77
2022/03/17 05:40:05;;;;;;;19.65;10.68;;;8.50;99.90;;;;;;5096593;28;20020;-77
2022/03/17 05:42:31;;;;;;;21.92;9.75;;;8.50;99.90;;;;;;5096055;28;20060;-77
2022/03/17 05:44:57;;;;;;;19.30;10.70;;;8.60;99.90;;;;;;5096674;28;20042;-78
2022/03/17 05:47:23;;;;;;;23.77;10.75;;;8.60;99.90;;;;;;5096509;28;20115;-76
2022/03/17 05:49:48;;;;;;;19.30;10.98;;;8.60;99.90;;;;;;5096233;28;20112;-77
2022/03/17 05:52:14;;;;;;;26.48;12.30;;;8.60;99.90;;;;;;5096353;28;20415;-77
2022/03/17 05:54:41;;;;;;;19.23;11.88;;;8.60;99.90;;;;;;5096443;28;20036;-77
2022/03/17 05:57:11;;;;;;;22.52;12.27;;;8.60;99.90;;;;;;5096356;28;20351;-78
2022/03/17 05:59:39;;;;;;;31.98;11.77;;;8.50;99.90;;;;;;5096307;28;20028;-77
2022/03/17 06:02:05;;;;;;;25.80;12.65;;;8.50;99.90;;;;;;5095758;28;20461;-78
2022/03/17 06:04:31;;;;;;;22.63;13.00;;;8.50;99.90;;;;;;5095909;28;20499;-77
2022/03/17 06:06:57;;;;;;;22.27;13.32;;;8.50;99.90;;;;;;5096288;28;20103;-77
2022/03/17 06:09:23;;;;;;;24.13;12.50;;;8.40;99.90;;;;;;5095817;28;20024;-78
2022/03/17 06:11:49;;;;;;;25.75;12.68;;;8.40;99.90;;;;;;5095843;28;20107;-77
2022/03/17 06:14:14;;;;;;;22.85;12.05;;;8.30;99.90;;;;;;5095895;28;20074;-77
2022/03/17 06:16:40;;;;;;;25.02;12.18;;;8.40;99.90;;;;;;5095895;28;20016;-78
2022/03/17 06:19:06;;;;;;;20.23;12.00;;;8.30;99.90;;;;;;5095757;28;20416;-76
2022/03/17 06:21:31;;;;;;;26.25;11.55;;;8.40;99.90;;;;;;5095748;28;20058;-78
2022/03/17 06:23:57;;;;;;;24.90;12.45;;;8.40;99.90;;;;;;5095257;28;20028;-76
2022/03/17 06:26:23;;;;;;;19.33;11.60;;;8.40;99.90;;;;;;5095771;28;20492;-77
2022/03/17 06:28:48;;;;;;;20.67;11.07;;;8.50;99.90;;;;;;5095667;28;20055;-78
2022/03/17 06:31:14;;;;;;;19.02;11.30;;;8.60;99.90;;;;;;5095381;28;20020;-78
2022/03/17 06:33:40;;;;;;;25.17;12.15;;;8.60;99.90;;;;;;5095524;28;20050;-78
2022/03/17 06:36:06;;;;;;;17.15;11.02;;;8.50;99.90;;;;;;5095718;28;20024;-77
2022/03/17 06:38:31;;;;;;;17.83;10.80;;;8.50;99.90;;;;;;5095016;28;20035;-77
2022/03/17 06:40:57;;;;;;;15.13;9.45;;;8.70;99.90;;;;;;5095463;28;20028;-78
2022/03/17 06:43:23;;;;;;;17.33;10.13;;;8.70;99.90;;;;;;5095202;28;20097;-78
2022/03/17 06:45:50;;;;;;;16.65;10.82;;;8.80;99.90;;;;;;5095526;28;20512;-78
2022/03/17 06:48:15;;;;;;;17.20;10.80;;;8.60;99.90;;;;;;5094744;28;20115;-78
2022/03/17 06:50:41;;;;;;;27.58;12.48;;;8.80;99.90;;;;;;5095304;28;20130;-77
2022/03/17 06:53:07;;;;;;;19.65;11.13;;;8.90;99.90;;;;;;5094683;28;20145;-77
2022/03/17 06:55:33;;;;;;;23.40;12.05;;;8.90;99.90;;;;;;5093811;28;20085;-78
2022/03/17 06:58:00;;;;;;;18.02;9.63;;;8.70;99.90;;;;;;5095006;28;20027;-77
2022/03/17 07:00:26;;;;;;;20.35;9.50;;;8.60;99.90;;;;;;5094754;28;20046;-77
2022/03/17 07:02:52;;;;;;;16.92;9.38;;;8.60;99.90;;;;;;5094731;28;20498;-79
2022/03/17 07:05:17;;;;;;;10.38;7.57;;;8.60;99.90;;;;;;5093310;28;20134;-77
2022/03/17 07:07:43;;;;;;;16.38;8.02;;;8.60;99.90;;;;;;5094600;28;20116;-78
2022/03/17 07:10:11;;;;;;;12.25;6.15;;;8.60;99.90;;;;;;5094532;28;20044;-78
2022/03/17 07:12:37;;;;;;;15.82;6.15;;;8.50;99.90;;;;;;5094898;28;20095;-78
2022/03/17 07:15:04;;;;;;;11.93;6.43;;;8.60;99.90;;;;;;5094733;28;20027;-77
2022/03/17 07:17:41;;;;;;;9.40;5.05;;;8.80;99.90;;;;;;5094826;28;20389;-78
2022/03/17 07:20:15;;;;;;;16.48;5.47;;;8.80;99.90;;;;;;5094334;28;20036;-78
2022/03/17 07:22:46;;;;;;;9.88;3.55;;;9.00;99.90;;;;;;5091610;28;20028;-78
2022/03/17 07:25:13;;;;;;;9.85;3.55;;;8.80;99.90;;;;;;5089855;28;20036;-78
2022/03/17 07:27:40;;;;;;;8.73;3.63;;;8.80;99.90;;;;;;5089504;28;20093;-78
2022/03/17 07:30:08;;;;;;;10.27;3.45;;;8.80;99.90;;;;;;5090346;28;20527;-78
2022/03/17 07:32:34;;;;;;;12.20;3.47;;;8.80;99.90;;;;;;5090533;28;20032;-78
2022/03/17 07:35:00;;;;;;;11.40;3.47;;;9.10;99.90;;;;;;5090376;28;20040;-79
2022/03/17 07:37:26;;;;;;;8.57;3.80;;;9.10;99.90;;;;;;5089120;28;20020;-78
2022/03/17 07:39:51;;;;;;;8.50;2.95;;;9.00;99.90;;;;;;5088305;28;20032;-77
2022/03/17 07:42:17;;;;;;;13.63;3.95;;;9.00;99.90;;;;;;5091478;28;20046;-77
2022/03/17 07:45:10;;;;;;;7.68;2.30;;;9.20;99.90;;;;;;5092576;28;20052;-78
2022/03/17 07:47:54;;;;;;;5.82;1.92;;;9.10;99.90;;;;;;5093824;28;20556;-76
2022/03/17 07:50:21;;;;;;;6.35;1.60;;;9.00;99.90;;;;;;5092676;28;20050;-77
2022/03/17 07:52:47;;;;;;;14.07;2.20;;;9.00;99.90;;;;;;5093085;28;20012;-76
2022/03/17 07:55:13;;;;;;;6.15;2.30;;;9.10;99.90;;;;;;5093553;28;20032;-77
2022/03/17 07:57:39;;;;;;;6.18;1.70;;;9.10;99.90;;;;;;5092752;28;20024;-77
2022/03/17 08:00:08;;;;;;;10.50;1.85;;;9.10;99.90;;;;;;5091283;28;20032;-78
2022/03/17 08:02:42;;;;;;;8.07;2.53;;;9.00;99.90;;;;;;5092793;28;20118;-78
2022/03/17 08:05:15;;;;;;;7.65;2.00;;;8.90;99.90;;;;;;5092921;28;20051;-77
2022/03/17 08:07:41;;;;;;;5.53;1.65;;;9.00;99.90;;;;;;5093086;28;20114;-78
2022/03/17 08:10:07;;;;;;;14.90;2.38;;;9.10;99.90;;;;;;5093053;28;20036;-77
2022/03/17 08:12:34;;;;;;;9.68;1.88;;;9.10;99.90;;;;;;5093187;28;20362;-77
2022/03/17 08:15:01;;;;;;;7.85;1.70;;;9.00;99.90;;;;;;5092410;28;20158;-77
2022/03/17 08:17:28;;;;;;;8.73;2.00;;;9.10;99.90;;;;;;5091996;28;20363;-78
2022/03/17 08:19:54;;;;;;;4.65;2.25;;;9.20;99.90;;;;;;5093169;28;20103;-78
2022/03/17 08:22:20;;;;;;;4.05;1.80;;;9.20;99.90;;;;;;5092375;28;20169;-78
2022/03/17 08:24:46;;;;;;;5.22;1.90;;;9.30;99.90;;;;;;5093696;28;20118;-77
2022/03/17 08:27:11;;;;;;;7.47;2.05;;;9.30;99.90;;;;;;5092808;28;20150;-78
2022/03/17 08:29:40;;;;;;;6.20;2.00;;;9.20;99.90;;;;;;5092774;28;20032;-78
2022/03/17 08:32:06;;;;;;;12.80;2.10;;;9.30;99.90;;;;;;5092618;28;20110;-77
2022/03/17 08:34:32;;;;;;;4.47;2.05;;;9.30;99.90;;;;;;5083968;28;20032;-77
2022/03/17 08:36:59;;;;;;;10.40;2.30;;;9.40;99.90;;;;;;5071905;28;20032;-77
2022/03/17 08:39:26;;;;;;;6.07;2.13;;;9.60;99.90;;;;;;5054367;28;20032;-77
2022/03/17 08:41:53;;;;;;;7.25;2.25;;;9.50;99.90;;;;;;5072393;28;20534;-78
2022/03/17 08:44:20;;;;;;;7.03;1.73;;;9.30;99.90;;;;;;5072367;28;20158;-77
2022/03/17 08:49:30;;;;;;;12.07;2.38;;;9.30;99.90;;;;;;5070756;28;20495;-77
2022/03/17 08:51:59;;;;;;;8.30;2.05;;;9.20;99.90;;;;;;5073591;28;20075;-77
2022/03/17 08:54:27;;;;;;;7.47;1.80;;;9.40;99.90;;;;;;5092401;28;20500;-77
2022/03/17 08:56:59;;;;;;;7.30;1.95;;;9.50;99.90;;;;;;5092584;28;20024;-78
2022/03/17 08:59:36;;;;;;;10.35;2.55;;;9.40;99.90;;;;;;5092270;28;20098;-78
2022/03/17 09:02:12;;;;;;;7.35;2.20;;;9.30;99.90;;;;;;5091857;28;20080;-76
2022/03/17 09:04:38;;;;;;;4.97;1.90;;;9.20;99.90;;;;;;5089999;28;20042;-78
2022/03/17 09:07:04;;;;;;;6.88;2.10;;;9.20;99.90;;;;;;5092017;28;20473;-77
2022/03/17 09:09:32;;;;;;;10.02;3.05;;;9.30;99.90;;;;;;5092100;28;20118;-79
2022/03/17 09:12:04;;;;;;;8.95;2.33;;;9.40;99.90;;;;;;5096610;28;20024;-79
2022/03/17 09:14:34;;;;;;;3.30;2.08;;;9.50;99.90;;;;;;5096856;28;20070;-77
2022/03/17 09:17:01;;;;;;;9.70;2.70;;;9.50;99.90;;;;;;5095292;28;20024;-78
2022/03/17 09:19:27;;;;;;;13.20;2.50;;;9.50;99.90;;;;;;5096109;28;20047;-78
2022/03/17 09:21:53;;;;;;;5.22;2.25;;;9.40;99.90;;;;;;5096281;28;20024;-78
2022/03/17 09:24:19;;;;;;;3.00;1.98;;;9.20;99.90;;;;;;5096184;28;20074;-78
2022/03/17 09:26:45;;;;;;;7.53;2.30;;;9.10;99.90;;;;;;5095991;28;20059;-78
2022/03/17 09:29:11;;;;;;;5.40;2.03;;;9.20;99.90;;;;;;5096367;28;20028;-78
2022/03/17 09:31:37;;;;;;;10.40;2.67;;;9.30;99.90;;;;;;5096096;28;20103;-78
2022/03/17 09:34:04;;;;;;;13.15;4.55;;;9.20;99.90;;;;;;5096086;28;20039;-78
2022/03/17 09:36:30;;;;;;;6.38;2.33;;;9.30;99.90;;;;;;5094795;28;20073;-78
2022/03/17 09:41:42;;;;;;;8.23;2.03;;;9.40;99.90;;;;;;5076915;28;20456;-77
2022/03/17 09:44:08;;;;;;;7.03;2.67;;;9.30;99.90;;;;;;5073042;28;20064;-77
2022/03/17 09:46:34;;;;;;;8.18;3.00;;;9.30;99.90;;;;;;5090357;28;20064;-77
2022/03/17 09:49:03;;;;;;;5.13;2.33;;;9.30;99.90;;;;;;5095278;28;20031;-78
2022/03/17 09:51:29;;;;;;;17.85;3.03;;;9.40;99.90;;;;;;5094778;28;20042;-77
2022/03/17 09:54:00;;;;;;;8.38;2.67;;;9.50;99.90;;;;;;5095494;28;20024;-78
2022/03/17 09:56:27;;;;;;;3.92;1.60;;;9.80;99.90;;;;;;5092366;28;20024;-74
2022/03/17 09:58:58;;;;;;;7.90;2.10;;;10.00;99.90;;;;;;5074567;28;20480;-77
2022/03/17 10:01:26;;;;;;;8.32;2.30;;;9.80;99.90;;;;;;5075291;28;20043;-77
2022/03/17 10:03:58;;;;;;;6.05;2.25;;;9.50;99.90;;;;;;5074975;28;20048;-77
2022/03/17 10:06:24;;;;;;;9.50;3.40;;;9.50;99.90;;;;;;5075314;28;20032;-77
2022/03/17 10:08:50;;;;;;;9.00;2.03;;;9.60;99.90;;;;;;5074699;28;20056;-78
2022/03/17 10:11:28;;;;;;;8.52;2.20;;;9.60;99.90;;;;;;5075073;28;20036;-77
2022/03/17 10:13:56;;;;;;;6.43;2.22;;;9.60;99.90;;;;;;5075057;28;20029;-77
2022/03/17 10:16:23;;;;;;;11.70;2.97;;;9.70;99.90;;;;;;5074919;28;20028;-76
2022/03/17 10:19:00;;;;;;;12.32;2.13;;;9.80;99.90;;;;;;5074963;28;20477;-76
2022/03/17 10:21:27;;;;;;;6.28;2.45;;;9.80;99.90;;;;;;5074704;28;20035;-78
2022/03/17 10:24:07;;;;;;;8.82;3.00;;;9.70;99.90;;;;;;5091946;28;20087;-76
2022/03/17 10:26:44;;;;;;;7.97;2.58;;;10.00;99.90;;;;;;5095202;28;20043;-76
2022/03/17 10:29:19;;;;;;;11.05;2.92;;;9.80;99.90;;;;;;5094971;28;20028;-76
2022/03/17 10:31:55;;;;;;;9.20;3.60;;;9.80;99.90;;;;;;5093534;28;20462;-76
2022/03/17 10:34:29;;;;;;;8.80;2.80;;;9.90;99.90;;;;;;5094741;28;20039;-76
2022/03/17 10:37:12;;;;;;;5.78;3.15;;;9.80;99.90;;;;;;5095031;28;20031;-77
2022/03/17 10:39:44;;;;;;;8.63;3.50;;;9.90;99.90;;;;;;5093488;28;20035;-77
2022/03/17 10:42:15;;;;;;;12.52;3.90;;;10.10;99.90;;;;;;5075108;28;20055;-76
2022/03/17 10:44:46;;;;;;;14.32;3.35;;;10.10;99.90;;;;;;5092618;28;20070;-77
2022/03/17 10:47:11;;;;;;;9.38;3.10;;;10.20;99.90;;;;;;5094804;28;20109;-77
2022/03/17 10:49:38;;;;;;;14.02;4.57;;;10.20;99.90;;;;;;5092857;28;20032;-79
2022/03/17 10:52:04;;;;;;;11.05;4.80;;;10.30;99.90;;;;;;5094847;28;20035;-77
2022/03/17 10:54:31;;;;;;;10.07;4.97;;;10.70;99.90;;;;;;5082061;28;20032;-77
2022/03/17 10:57:11;;;;;;;9.02;3.65;;;10.90;99.90;;;;;;5074626;28;20021;-77
2022/03/17 10:59:42;;;;;;;8.88;4.38;;;10.70;99.90;;;;;;5074131;28;20066;-77
2022/03/17 11:02:08;;;;;;;13.40;3.30;;;11.00;99.90;;;;;;5080718;28;20028;-77
2022/03/17 11:04:43;;;;;;;16.70;3.63;;;10.90;99.90;;;;;;5094331;28;20032;-76
2022/03/17 11:07:15;;;;;;;4.82;2.95;;;11.20;99.90;;;;;;5095018;28;20039;-77
2022/03/17 11:09:42;;;;;;;8.73;3.88;;;11.10;99.90;;;;;;5075571;28;20025;-76
2022/03/17 11:12:15;;;;;;;5.88;3.20;;;10.90;99.90;;;;;;5089310;28;20106;-76
2022/03/17 11:14:55;;;;;;;10.98;3.40;;;11.10;99.90;;;;;;5085056;28;20137;-76
2022/03/17 11:17:26;;;;;;;13.00;3.07;;;11.10;99.90;;;;;;5021505;23;20095;-77
2022/03/17 11:20:03;;;;;;;13.02;3.20;;;11.10;99.90;;;;;;5006059;28;20378;-77
2022/03/17 11:22:32;;;;;;;11.20;3.00;;;11.40;99.90;;;;;;5013598;28;20144;-79
2022/03/17 11:25:16;;;;;;;13.75;3.80;;;11.40;99.90;;;;;;5014044;28;20427;-78
2022/03/17 11:28:04;;;;;;;14.90;3.28;;;11.70;99.90;;;;;;5032620;28;20033;-78
2022/03/17 11:30:31;;;;;;;6.82;2.38;;;12.10;99.90;;;;;;5033465;28;20440;-76
2022/03/17 11:32:58;;;;;;;6.70;2.10;;;12.30;99.90;;;;;;5033892;28;20187;-77
2022/03/17 11:35:29;;;;;;;9.48;2.53;;;12.50;99.90;;;;;;5032957;28;20501;-78
2022/03/17 11:38:22;;;;;;;5.05;2.25;;;12.50;99.90;;;;;;5032820;28;20039;-77
2022/03/17 11:41:07;;;;;;;6.43;2.30;;;12.40;99.90;;;;;;5033629;28;20116;-77
2022/03/17 11:43:42;;;;;;;8.40;2.65;;;12.90;99.90;;;;;;5031375;28;20456;-77
2022/03/17 11:46:22;;;;;;;6.47;2.45;;;13.00;99.60;;;;;;5031579;28;20049;-76
2022/03/17 11:48:56;;;;;;;16.08;2.60;;;13.50;99.20;;;;;;5013491;28;20061;-77
2022/03/17 11:51:22;;;;;;;6.10;2.30;;;13.30;97.70;;;;;;5010983;28;20022;-78
2022/03/17 11:54:08;;;;;;;9.23;2.42;;;13.10;98.30;;;;;;5011999;28;20049;-78
2022/03/17 11:56:47;;;;;;;8.98;2.70;;;13.30;98.90;;;;;;5013030;28;20318;-77
2022/03/17 11:59:16;;;;;;;7.82;2.88;;;13.40;98.20;;;;;;5013129;28;20072;-77
2022/03/17 12:01:47;;;;;;;10.73;2.30;;;13.90;98.10;;;;;;5013378;28;20018;-79
2022/03/17 12:04:30;;;;;;;4.20;2.13;;;13.40;97.30;;;;;;5013576;28;20140;-79
2022/03/17 12:07:10;;;;;;;9.45;2.88;;;12.90;98.20;;;;;;5013676;28;20029;-78
2022/03/17 12:09:36;;;;;;;12.27;2.38;;;13.30;97.50;;;;;;5013716;28;20369;-78
2022/03/17 12:12:16;;;;;;;6.05;2.40;;;13.60;96.30;;;;;;5013402;28;20026;-79
2022/03/17 12:14:59;;;;;;;8.05;2.17;;;14.10;96.30;;;;;;5013775;28;20079;-79
2022/03/17 12:17:26;;;;;;;6.78;2.50;;;14.40;95.50;;;;;;5019416;28;20032;-80
2022/03/17 12:20:19;;;;;;;6.28;1.73;;;14.10;95.90;;;;;;5031957;28;20120;-78
2022/03/17 12:22:45;;;;;;;10.48;2.38;;;14.40;95.30;;;;;;5033365;28;20109;-77
2022/03/17 12:25:18;;;;;;;5.35;2.35;;;14.40;94.70;;;;;;5033012;28;20043;-79
2022/03/17 12:27:53;;;;;;;8.73;2.33;;;14.60;95.20;;;;;;5033101;28;20032;-78
2022/03/17 12:30:20;;;;;;;8.77;2.70;;;15.80;94.60;;;;;;5033031;28;20037;-79
2022/03/17 12:32:46;;;;;;;11.35;3.05;;;15.30;94.10;;;;;;5033077;28;20434;-80
2022/03/17 12:35:12;;;;;;;4.00;2.28;;;15.30;94.20;;;;;;5033304;28;20030;-79
2022/03/17 12:37:40;;;;;;;6.20;2.25;;;15.00;94.90;;;;;;5032973;28;20025;-77
2022/03/17 12:40:11;;;;;;;6.78;2.75;;;14.90;94.50;;;;;;5032837;28;20048;-79
2022/03/17 12:42:41;;;;;;;7.90;2.30;;;16.90;94.30;;;;;;5032751;28;20113;-79
2022/03/17 12:45:12;;;;;;;5.75;2.13;;;17.90;91.50;;;;;;5031178;28;20037;-79
2022/03/17 12:47:39;;;;;;;9.07;2.80;;;18.70;91.30;;;;;;5032858;28;20037;-78
2022/03/17 12:50:27;;;;;;;8.77;2.25;;;18.70;91.00;;;;;;5032852;28;20076;-80
2022/03/17 12:52:53;;;;;;;6.53;2.58;;;19.70;90.20;;;;;;5032711;28;20494;-78
2022/03/17 12:55:21;;;;;;;9.75;2.22;;;20.00;87.90;;;;;;5032776;28;20053;-78
2022/03/17 12:57:47;;;;;;;7.72;2.30;;;19.20;89.30;;;;;;5032454;28;20096;-80
2022/03/17 13:00:16;;;;;;;8.45;2.50;;;19.20;87.60;;;;;;5031551;28;20575;-80
2022/03/17 13:02:46;;;;;;;6.00;2.25;;;19.00;89.20;;;;;;5021003;28;20081;-79
2022/03/17 13:08:02;;;;;;;7.57;2.20;;;20.60;83.80;;;;;;5012595;28;20057;-78